Mount Sterling, KY

9:17 AM EDT on September 29, 2016 (GMT -0400)
Maysville Avenue | | Change Station

Elev 1024 ft 38.06 °N, 83.95 °W | Updated 8 days ago

Cloudy
Cloudy
58 °F
Feels Like 58 °F
N
2
Wind Variable Wind from WNW
Gusts mph

Today
High -- | Low -- °F
--% Chance of Precip.
Yesterday
High -- | Low -- °F
Precip. -- in
Pressure 30.04 in
Visibility 7.0 miles
Clouds Mostly Cloudy 1200 ft
Overcast 7000 ft
Dew Point 53 °F
Humidity 83%
Rainfall in
Snow Depth Not available.
7:30 AM 7:21 PM
Waning Crescent, 2% visible
METAR KLEX 291254Z 00000KT 7SM BKN012 OVC070 12/11 A3004 RMK AO2 SLP171 T01220106 $
Pressure 30.04 in
Visibility 7.0 miles
Clouds Mostly Cloudy 1200 ft
Overcast 7000 ft
Dew Point 53 °F
Humidity 83%
Rainfall in
Snow Depth Not available.
7:30 AM 7:21 PM
Waning Crescent, 2% visible
METAR KLEX 291254Z 00000KT 7SM BKN012 OVC070 12/11 A3004 RMK AO2 SLP171 T01220106 $

10-Day Weather Forecast

Almanac

Astronomy

Sep. 29, 2016 Rise Set
Actual Time
Civil Twilight
Nautical Twilight
Astronomical Twilight
Moon
Length of Visible Light
Length of Day
Tomorrow will be .
, % of the Moon is Illuminated

Today's Extremes

State Highs State Lows

Community

WunderPhotos

Upload Photos

1,942,470 photos uploaded!

WunderBlog® & News

Nearby

Air Quality

  Air Quality AQ Index Pollutant
Not available.

Snow Depth

Station Depth Elevation

Earthquake Activity

City Distance Mag. Time & Date
Minimum magnitude displayed is 2.5.

Coastal Water Temperatures

Place Temperature

Stations

Nearby Weather Stations

Station Location Temp. Windchill Dew Point Humidity Wind Precip. Elev Updated Type
                   

Watches & Warnings

There are currently no watches in effect.